sensor_id;sensor_type;location;lat;lon;timestamp;P1;durP1;ratioP1;P2;durP2;ratioP2
17207;SDS011;8720;48.488;9.202;2023-03-14T00:00:06;1.93;;;0.70;;
17207;SDS011;8720;48.488;9.202;2023-03-14T00:02:36;1.00;;;0.70;;
17207;SDS011;8720;48.488;9.202;2023-03-14T00:05:05;1.10;;;0.60;;
17207;SDS011;8720;48.488;9.202;2023-03-14T00:07:35;1.00;;;0.63;;
17207;SDS011;8720;48.488;9.202;2023-03-14T00:10:08;1.03;;;0.70;;
17207;SDS011;8720;48.488;9.202;2023-03-14T00:12:39;1.07;;;0.70;;
17207;SDS011;8720;48.488;9.202;2023-03-14T00:15:07;1.10;;;0.70;;
17207;SDS011;8720;48.488;9.202;2023-03-14T00:17:36;1.00;;;0.70;;
17207;SDS011;8720;48.488;9.202;2023-03-14T00:20:06;1.00;;;0.70;;
17207;SDS011;8720;48.488;9.202;2023-03-14T00:22:36;1.60;;;0.60;;
17207;SDS011;8720;48.488;9.202;2023-03-14T00:25:06;1.07;;;0.70;;
17207;SDS011;8720;48.488;9.202;2023-03-14T00:27:36;1.00;;;0.60;;
17207;SDS011;8720;48.488;9.202;2023-03-14T00:30:04;1.00;;;0.60;;
17207;SDS011;8720;48.488;9.202;2023-03-14T00:32:34;0.90;;;0.60;;
17207;SDS011;8720;48.488;9.202;2023-03-14T00:35:01;1.00;;;0.57;;
17207;SDS011;8720;48.488;9.202;2023-03-14T00:37:31;0.90;;;0.60;;
17207;SDS011;8720;48.488;9.202;2023-03-14T00:39:58;0.90;;;0.60;;
17207;SDS011;8720;48.488;9.202;2023-03-14T00:42:25;1.00;;;0.70;;
17207;SDS011;8720;48.488;9.202;2023-03-14T00:44:53;2.97;;;0.60;;
17207;SDS011;8720;48.488;9.202;2023-03-14T00:47:20;1.40;;;0.60;;
17207;SDS011;8720;48.488;9.202;2023-03-14T00:49:47;1.00;;;0.57;;
17207;SDS011;8720;48.488;9.202;2023-03-14T00:52:15;1.20;;;0.60;;
17207;SDS011;8720;48.488;9.202;2023-03-14T00:54:43;1.00;;;0.60;;
17207;SDS011;8720;48.488;9.202;2023-03-14T00:57:11;0.90;;;0.60;;
17207;SDS011;8720;48.488;9.202;2023-03-14T00:59:38;1.10;;;0.60;;
17207;SDS011;8720;48.488;9.202;2023-03-14T01:02:05;1.00;;;0.70;;
17207;SDS011;8720;48.488;9.202;2023-03-14T01:04:33;1.47;;;0.90;;
17207;SDS011;8720;48.488;9.202;2023-03-14T01:07:02;1.00;;;0.60;;
17207;SDS011;8720;48.488;9.202;2023-03-14T01:09:30;1.00;;;0.60;;
17207;SDS011;8720;48.488;9.202;2023-03-14T01:11:59;0.90;;;0.60;;
17207;SDS011;8720;48.488;9.202;2023-03-14T01:14:26;1.10;;;0.60;;
17207;SDS011;8720;48.488;9.202;2023-03-14T01:16:54;1.00;;;0.60;;
17207;SDS011;8720;48.488;9.202;2023-03-14T01:19:26;1.00;;;0.50;;
17207;SDS011;8720;48.488;9.202;2023-03-14T01:21:54;0.90;;;0.50;;
17207;SDS011;8720;48.488;9.202;2023-03-14T01:24:22;1.00;;;0.60;;
17207;SDS011;8720;48.488;9.202;2023-03-14T01:26:49;1.30;;;0.60;;
17207;SDS011;8720;48.488;9.202;2023-03-14T01:29:19;1.00;;;0.70;;
17207;SDS011;8720;48.488;9.202;2023-03-14T01:31:46;1.30;;;0.73;;
17207;SDS011;8720;48.488;9.202;2023-03-14T01:34:14;1.10;;;0.60;;
17207;SDS011;8720;48.488;9.202;2023-03-14T01:36:41;1.30;;;0.60;;
17207;SDS011;8720;48.488;9.202;2023-03-14T01:39:09;1.27;;;0.60;;
17207;SDS011;8720;48.488;9.202;2023-03-14T01:41:38;0.83;;;0.53;;
17207;SDS011;8720;48.488;9.202;2023-03-14T01:44:08;0.90;;;0.60;;
17207;SDS011;8720;48.488;9.202;2023-03-14T01:46:39;1.00;;;0.60;;
17207;SDS011;8720;48.488;9.202;2023-03-14T01:52:02;1.67;;;0.60;;
17207;SDS011;8720;48.488;9.202;2023-03-14T01:54:37;1.10;;;0.60;;
17207;SDS011;8720;48.488;9.202;2023-03-14T01:57:10;2.17;;;0.70;;
17207;SDS011;8720;48.488;9.202;2023-03-14T01:59:45;0.90;;;0.60;;
17207;SDS011;8720;48.488;9.202;2023-03-14T02:02:20;0.90;;;0.60;;
17207;SDS011;8720;48.488;9.202;2023-03-14T02:04:50;1.10;;;0.60;;
17207;SDS011;8720;48.488;9.202;2023-03-14T02:07:22;1.10;;;0.63;;
17207;SDS011;8720;48.488;9.202;2023-03-14T02:10:11;1.00;;;0.80;;
17207;SDS011;8720;48.488;9.202;2023-03-14T02:12:41;0.90;;;0.70;;
17207;SDS011;8720;48.488;9.202;2023-03-14T02:15:15;1.40;;;0.70;;
17207;SDS011;8720;48.488;9.202;2023-03-14T02:17:56;1.00;;;0.70;;
17207;SDS011;8720;48.488;9.202;2023-03-14T02:20:45;1.10;;;0.80;;
17207;SDS011;8720;48.488;9.202;2023-03-14T02:23:20;1.00;;;0.70;;
17207;SDS011;8720;48.488;9.202;2023-03-14T02:26:00;0.90;;;0.60;;
17207;SDS011;8720;48.488;9.202;2023-03-14T02:28:37;1.00;;;0.73;;
17207;SDS011;8720;48.488;9.202;2023-03-14T02:31:05;0.97;;;0.60;;
17207;SDS011;8720;48.488;9.202;2023-03-14T02:33:33;1.10;;;0.63;;
17207;SDS011;8720;48.488;9.202;2023-03-14T02:36:05;1.80;;;0.70;;
17207;SDS011;8720;48.488;9.202;2023-03-14T02:38:39;1.10;;;0.60;;
17207;SDS011;8720;48.488;9.202;2023-03-14T02:41:14;1.20;;;0.67;;
17207;SDS011;8720;48.488;9.202;2023-03-14T02:43:49;1.10;;;0.70;;
17207;SDS011;8720;48.488;9.202;2023-03-14T02:46:17;1.10;;;0.70;;
17207;SDS011;8720;48.488;9.202;2023-03-14T02:48:48;1.00;;;0.70;;
17207;SDS011;8720;48.488;9.202;2023-03-14T02:51:22;0.90;;;0.60;;
17207;SDS011;8720;48.488;9.202;2023-03-14T02:53:53;1.00;;;0.70;;
17207;SDS011;8720;48.488;9.202;2023-03-14T02:56:23;0.90;;;0.60;;
17207;SDS011;8720;48.488;9.202;2023-03-14T02:58:52;2.13;;;0.70;;
17207;SDS011;8720;48.488;9.202;2023-03-14T03:04:08;1.10;;;0.70;;
17207;SDS011;8720;48.488;9.202;2023-03-14T03:06:36;1.30;;;0.70;;
17207;SDS011;8720;48.488;9.202;2023-03-14T03:09:03;2.17;;;0.70;;
17207;SDS011;8720;48.488;9.202;2023-03-14T03:11:30;1.10;;;0.77;;
17207;SDS011;8720;48.488;9.202;2023-03-14T03:13:59;1.20;;;0.70;;
17207;SDS011;8720;48.488;9.202;2023-03-14T03:16:28;1.70;;;0.80;;
17207;SDS011;8720;48.488;9.202;2023-03-14T03:18:55;1.63;;;0.83;;
17207;SDS011;8720;48.488;9.202;2023-03-14T03:21:22;1.00;;;0.70;;
17207;SDS011;8720;48.488;9.202;2023-03-14T03:23:56;1.90;;;0.70;;
17207;SDS011;8720;48.488;9.202;2023-03-14T03:26:35;1.20;;;0.70;;
17207;SDS011;8720;48.488;9.202;2023-03-14T03:29:06;2.93;;;1.00;;
17207;SDS011;8720;48.488;9.202;2023-03-14T03:31:36;1.60;;;0.60;;
17207;SDS011;8720;48.488;9.202;2023-03-14T03:34:04;1.77;;;0.70;;
17207;SDS011;8720;48.488;9.202;2023-03-14T03:36:31;1.60;;;0.80;;
17207;SDS011;8720;48.488;9.202;2023-03-14T03:38:59;1.10;;;0.70;;
17207;SDS011;8720;48.488;9.202;2023-03-14T03:41:27;1.63;;;0.80;;
17207;SDS011;8720;48.488;9.202;2023-03-14T03:43:54;1.13;;;0.80;;
17207;SDS011;8720;48.488;9.202;2023-03-14T03:46:23;1.40;;;0.70;;
17207;SDS011;8720;48.488;9.202;2023-03-14T03:48:53;1.00;;;0.70;;
17207;SDS011;8720;48.488;9.202;2023-03-14T03:51:21;3.23;;;0.83;;
17207;SDS011;8720;48.488;9.202;2023-03-14T03:53:49;1.83;;;0.70;;
17207;SDS011;8720;48.488;9.202;2023-03-14T03:56:23;1.30;;;0.70;;
17207;SDS011;8720;48.488;9.202;2023-03-14T03:58:50;1.40;;;0.80;;
17207;SDS011;8720;48.488;9.202;2023-03-14T04:01:17;1.30;;;0.80;;
17207;SDS011;8720;48.488;9.202;2023-03-14T04:03:49;1.87;;;1.00;;
17207;SDS011;8720;48.488;9.202;2023-03-14T04:06:17;2.97;;;0.90;;
17207;SDS011;8720;48.488;9.202;2023-03-14T04:08:47;2.57;;;1.00;;
17207;SDS011;8720;48.488;9.202;2023-03-14T04:11:49;1.00;;;0.70;;
17207;SDS011;8720;48.488;9.202;2023-03-14T04:14:19;1.97;;;0.90;;
17207;SDS011;8720;48.488;9.202;2023-03-14T04:16:53;1.50;;;0.80;;
17207;SDS011;8720;48.488;9.202;2023-03-14T04:19:22;2.20;;;0.90;;
17207;SDS011;8720;48.488;9.202;2023-03-14T04:21:51;1.27;;;0.83;;
17207;SDS011;8720;48.488;9.202;2023-03-14T04:24:20;3.60;;;1.00;;
17207;SDS011;8720;48.488;9.202;2023-03-14T04:26:48;2.40;;;0.80;;
17207;SDS011;8720;48.488;9.202;2023-03-14T04:29:15;1.50;;;0.70;;
17207;SDS011;8720;48.488;9.202;2023-03-14T04:31:44;1.83;;;0.70;;
17207;SDS011;8720;48.488;9.202;2023-03-14T04:34:12;1.13;;;0.80;;
17207;SDS011;8720;48.488;9.202;2023-03-14T04:36:47;1.97;;;0.97;;
17207;SDS011;8720;48.488;9.202;2023-03-14T04:39:19;3.03;;;1.10;;
17207;SDS011;8720;48.488;9.202;2023-03-14T04:41:56;2.40;;;1.10;;
17207;SDS011;8720;48.488;9.202;2023-03-14T04:44:24;2.10;;;0.90;;
17207;SDS011;8720;48.488;9.202;2023-03-14T04:46:53;1.40;;;1.00;;
17207;SDS011;8720;48.488;9.202;2023-03-14T04:49:20;2.23;;;0.90;;
17207;SDS011;8720;48.488;9.202;2023-03-14T04:51:50;1.90;;;0.80;;
17207;SDS011;8720;48.488;9.202;2023-03-14T04:54:18;1.23;;;0.90;;
17207;SDS011;8720;48.488;9.202;2023-03-14T04:56:50;1.77;;;0.83;;
17207;SDS011;8720;48.488;9.202;2023-03-14T04:59:17;1.47;;;0.90;;
17207;SDS011;8720;48.488;9.202;2023-03-14T05:01:46;2.80;;;1.10;;
17207;SDS011;8720;48.488;9.202;2023-03-14T05:04:35;4.23;;;0.90;;
17207;SDS011;8720;48.488;9.202;2023-03-14T05:07:22;2.87;;;0.83;;
17207;SDS011;8720;48.488;9.202;2023-03-14T05:10:01;3.37;;;0.97;;
17207;SDS011;8720;48.488;9.202;2023-03-14T05:12:41;2.00;;;0.80;;
17207;SDS011;8720;48.488;9.202;2023-03-14T05:15:31;1.10;;;0.70;;
17207;SDS011;8720;48.488;9.202;2023-03-14T05:18:12;2.47;;;1.00;;
17207;SDS011;8720;48.488;9.202;2023-03-14T05:20:54;2.07;;;0.90;;
17207;SDS011;8720;48.488;9.202;2023-03-14T05:23:41;1.30;;;0.90;;
17207;SDS011;8720;48.488;9.202;2023-03-14T05:26:28;1.37;;;0.83;;
17207;SDS011;8720;48.488;9.202;2023-03-14T05:29:14;1.00;;;0.70;;
17207;SDS011;8720;48.488;9.202;2023-03-14T05:32:16;1.87;;;0.70;;
17207;SDS011;8720;48.488;9.202;2023-03-14T05:35:02;1.97;;;0.80;;
17207;SDS011;8720;48.488;9.202;2023-03-14T05:37:51;1.40;;;0.80;;
17207;SDS011;8720;48.488;9.202;2023-03-14T05:40:52;1.50;;;0.80;;
17207;SDS011;8720;48.488;9.202;2023-03-14T05:43:54;1.77;;;0.77;;
17207;SDS011;8720;48.488;9.202;2023-03-14T05:46:40;2.83;;;0.90;;
17207;SDS011;8720;48.488;9.202;2023-03-14T05:49:22;2.40;;;0.83;;
17207;SDS011;8720;48.488;9.202;2023-03-14T05:51:58;1.03;;;0.70;;
17207;SDS011;8720;48.488;9.202;2023-03-14T05:54:42;3.00;;;0.87;;
17207;SDS011;8720;48.488;9.202;2023-03-14T05:57:29;2.00;;;0.70;;
17207;SDS011;8720;48.488;9.202;2023-03-14T06:00:15;2.20;;;0.77;;
17207;SDS011;8720;48.488;9.202;2023-03-14T06:02:57;1.50;;;0.80;;
17207;SDS011;8720;48.488;9.202;2023-03-14T06:05:29;2.37;;;0.73;;
17207;SDS011;8720;48.488;9.202;2023-03-14T06:07:59;2.70;;;0.80;;
17207;SDS011;8720;48.488;9.202;2023-03-14T06:10:29;1.77;;;0.70;;
17207;SDS011;8720;48.488;9.202;2023-03-14T06:12:58;1.93;;;0.70;;
17207;SDS011;8720;48.488;9.202;2023-03-14T06:15:26;3.30;;;0.90;;
17207;SDS011;8720;48.488;9.202;2023-03-14T06:17:55;3.03;;;0.90;;
17207;SDS011;8720;48.488;9.202;2023-03-14T06:20:23;2.27;;;0.70;;
17207;SDS011;8720;48.488;9.202;2023-03-14T06:22:51;2.07;;;0.70;;
17207;SDS011;8720;48.488;9.202;2023-03-14T06:25:19;1.43;;;0.70;;
17207;SDS011;8720;48.488;9.202;2023-03-14T06:27:47;2.13;;;0.70;;
17207;SDS011;8720;48.488;9.202;2023-03-14T06:30:17;1.43;;;1.13;;
17207;SDS011;8720;48.488;9.202;2023-03-14T06:32:45;1.97;;;0.77;;
17207;SDS011;8720;48.488;9.202;2023-03-14T06:35:14;2.40;;;0.80;;
17207;SDS011;8720;48.488;9.202;2023-03-14T06:37:43;2.47;;;0.90;;
17207;SDS011;8720;48.488;9.202;2023-03-14T06:40:11;1.37;;;0.70;;
17207;SDS011;8720;48.488;9.202;2023-03-14T06:42:58;1.67;;;0.90;;
17207;SDS011;8720;48.488;9.202;2023-03-14T06:45:30;1.63;;;0.80;;
17207;SDS011;8720;48.488;9.202;2023-03-14T06:48:00;2.77;;;0.80;;
17207;SDS011;8720;48.488;9.202;2023-03-14T06:50:43;1.10;;;0.70;;
17207;SDS011;8720;48.488;9.202;2023-03-14T06:53:10;1.80;;;0.70;;
17207;SDS011;8720;48.488;9.202;2023-03-14T06:55:41;1.03;;;0.67;;
17207;SDS011;8720;48.488;9.202;2023-03-14T06:58:09;1.70;;;0.73;;
17207;SDS011;8720;48.488;9.202;2023-03-14T07:00:42;1.93;;;0.90;;
17207;SDS011;8720;48.488;9.202;2023-03-14T07:03:13;1.10;;;0.70;;
17207;SDS011;8720;48.488;9.202;2023-03-14T07:05:46;0.97;;;0.67;;
17207;SDS011;8720;48.488;9.202;2023-03-14T07:08:13;1.30;;;0.70;;
17207;SDS011;8720;48.488;9.202;2023-03-14T07:10:40;1.93;;;0.70;;
17207;SDS011;8720;48.488;9.202;2023-03-14T07:13:09;1.20;;;0.70;;
17207;SDS011;8720;48.488;9.202;2023-03-14T07:15:58;1.60;;;0.83;;
17207;SDS011;8720;48.488;9.202;2023-03-14T07:18:26;2.77;;;0.80;;
17207;SDS011;8720;48.488;9.202;2023-03-14T07:20:55;1.03;;;0.60;;
17207;SDS011;8720;48.488;9.202;2023-03-14T07:23:23;1.20;;;0.80;;
17207;SDS011;8720;48.488;9.202;2023-03-14T07:25:52;1.77;;;0.70;;
17207;SDS011;8720;48.488;9.202;2023-03-14T07:28:21;1.10;;;0.67;;
17207;SDS011;8720;48.488;9.202;2023-03-14T07:30:55;1.57;;;0.67;;
17207;SDS011;8720;48.488;9.202;2023-03-14T07:33:29;1.20;;;0.80;;
17207;SDS011;8720;48.488;9.202;2023-03-14T07:36:00;1.53;;;0.70;;
17207;SDS011;8720;48.488;9.202;2023-03-14T07:38:28;1.90;;;0.63;;
17207;SDS011;8720;48.488;9.202;2023-03-14T07:41:14;1.10;;;0.70;;
17207;SDS011;8720;48.488;9.202;2023-03-14T07:44:03;1.07;;;0.60;;
17207;SDS011;8720;48.488;9.202;2023-03-14T07:46:30;1.83;;;0.70;;
17207;SDS011;8720;48.488;9.202;2023-03-14T07:48:59;1.70;;;0.80;;
17207;SDS011;8720;48.488;9.202;2023-03-14T07:51:26;1.00;;;0.70;;
17207;SDS011;8720;48.488;9.202;2023-03-14T07:53:54;2.40;;;0.60;;
17207;SDS011;8720;48.488;9.202;2023-03-14T07:56:21;1.17;;;0.80;;
17207;SDS011;8720;48.488;9.202;2023-03-14T07:58:48;1.53;;;0.70;;
17207;SDS011;8720;48.488;9.202;2023-03-14T08:01:15;1.10;;;0.80;;
17207;SDS011;8720;48.488;9.202;2023-03-14T08:03:43;1.30;;;0.77;;
17207;SDS011;8720;48.488;9.202;2023-03-14T08:06:11;0.90;;;0.60;;
17207;SDS011;8720;48.488;9.202;2023-03-14T08:08:38;1.53;;;0.73;;
17207;SDS011;8720;48.488;9.202;2023-03-14T08:11:07;1.10;;;0.70;;
17207;SDS011;8720;48.488;9.202;2023-03-14T08:13:34;2.07;;;0.70;;
17207;SDS011;8720;48.488;9.202;2023-03-14T08:16:02;1.20;;;0.70;;
17207;SDS011;8720;48.488;9.202;2023-03-14T08:18:31;2.23;;;0.93;;
17207;SDS011;8720;48.488;9.202;2023-03-14T08:20:59;1.10;;;0.73;;
17207;SDS011;8720;48.488;9.202;2023-03-14T08:23:28;1.57;;;0.70;;
17207;SDS011;8720;48.488;9.202;2023-03-14T08:25:55;1.50;;;0.90;;
17207;SDS011;8720;48.488;9.202;2023-03-14T08:28:22;1.30;;;1.00;;
17207;SDS011;8720;48.488;9.202;2023-03-14T08:30:50;2.90;;;0.70;;
17207;SDS011;8720;48.488;9.202;2023-03-14T08:33:17;1.40;;;0.80;;
17207;SDS011;8720;48.488;9.202;2023-03-14T08:35:44;1.10;;;0.60;;
17207;SDS011;8720;48.488;9.202;2023-03-14T08:38:11;1.93;;;0.60;;
17207;SDS011;8720;48.488;9.202;2023-03-14T08:40:40;1.60;;;0.70;;
17207;SDS011;8720;48.488;9.202;2023-03-14T08:43:08;1.70;;;0.77;;
17207;SDS011;8720;48.488;9.202;2023-03-14T08:45:35;0.90;;;0.60;;
17207;SDS011;8720;48.488;9.202;2023-03-14T08:48:03;1.60;;;0.60;;
17207;SDS011;8720;48.488;9.202;2023-03-14T08:50:31;2.70;;;0.70;;
17207;SDS011;8720;48.488;9.202;2023-03-14T08:52:59;1.03;;;0.60;;
17207;SDS011;8720;48.488;9.202;2023-03-14T08:55:27;1.83;;;1.03;;
17207;SDS011;8720;48.488;9.202;2023-03-14T08:57:56;1.17;;;0.90;;
17207;SDS011;8720;48.488;9.202;2023-03-14T09:00:23;2.33;;;0.70;;
17207;SDS011;8720;48.488;9.202;2023-03-14T09:02:51;2.70;;;0.90;;
17207;SDS011;8720;48.488;9.202;2023-03-14T09:05:18;1.00;;;0.63;;
17207;SDS011;8720;48.488;9.202;2023-03-14T09:07:46;1.20;;;0.70;;
17207;SDS011;8720;48.488;9.202;2023-03-14T09:10:13;1.20;;;0.60;;
17207;SDS011;8720;48.488;9.202;2023-03-14T09:12:41;1.40;;;0.80;;
17207;SDS011;8720;48.488;9.202;2023-03-14T09:15:10;1.20;;;0.60;;
17207;SDS011;8720;48.488;9.202;2023-03-14T09:17:37;1.13;;;0.70;;
17207;SDS011;8720;48.488;9.202;2023-03-14T09:20:05;1.00;;;0.60;;
17207;SDS011;8720;48.488;9.202;2023-03-14T09:22:34;2.50;;;0.63;;
17207;SDS011;8720;48.488;9.202;2023-03-14T09:25:02;0.90;;;0.60;;
17207;SDS011;8720;48.488;9.202;2023-03-14T09:27:29;1.90;;;0.60;;
17207;SDS011;8720;48.488;9.202;2023-03-14T09:29:56;1.70;;;0.63;;
17207;SDS011;8720;48.488;9.202;2023-03-14T09:32:25;1.10;;;0.70;;
17207;SDS011;8720;48.488;9.202;2023-03-14T09:34:52;0.90;;;0.60;;
17207;SDS011;8720;48.488;9.202;2023-03-14T09:37:20;1.87;;;0.60;;
17207;SDS011;8720;48.488;9.202;2023-03-14T09:39:47;1.93;;;0.67;;
17207;SDS011;8720;48.488;9.202;2023-03-14T09:42:15;1.30;;;0.60;;
17207;SDS011;8720;48.488;9.202;2023-03-14T09:44:51;1.50;;;0.70;;
17207;SDS011;8720;48.488;9.202;2023-03-14T09:47:22;0.90;;;0.60;;
17207;SDS011;8720;48.488;9.202;2023-03-14T09:49:53;1.00;;;0.60;;
17207;SDS011;8720;48.488;9.202;2023-03-14T09:52:21;0.90;;;0.50;;
17207;SDS011;8720;48.488;9.202;2023-03-14T09:54:56;1.13;;;0.53;;
17207;SDS011;8720;48.488;9.202;2023-03-14T09:57:30;1.20;;;0.70;;
17207;SDS011;8720;48.488;9.202;2023-03-14T10:00:03;1.50;;;0.60;;
17207;SDS011;8720;48.488;9.202;2023-03-14T10:02:42;1.50;;;0.57;;
17207;SDS011;8720;48.488;9.202;2023-03-14T10:05:18;1.00;;;0.60;;
17207;SDS011;8720;48.488;9.202;2023-03-14T10:07:48;1.70;;;0.60;;
17207;SDS011;8720;48.488;9.202;2023-03-14T10:10:16;1.27;;;0.60;;
17207;SDS011;8720;48.488;9.202;2023-03-14T10:12:47;1.40;;;0.60;;
17207;SDS011;8720;48.488;9.202;2023-03-14T10:15:23;2.00;;;0.60;;
17207;SDS011;8720;48.488;9.202;2023-03-14T10:17:58;1.20;;;0.70;;
17207;SDS011;8720;48.488;9.202;2023-03-14T10:20:31;1.10;;;0.60;;
17207;SDS011;8720;48.488;9.202;2023-03-14T10:23:01;0.93;;;0.57;;
17207;SDS011;8720;48.488;9.202;2023-03-14T10:25:32;1.10;;;0.70;;
17207;SDS011;8720;48.488;9.202;2023-03-14T10:28:03;1.20;;;0.70;;
17207;SDS011;8720;48.488;9.202;2023-03-14T10:30:38;0.90;;;0.60;;
17207;SDS011;8720;48.488;9.202;2023-03-14T10:33:16;1.43;;;0.60;;
17207;SDS011;8720;48.488;9.202;2023-03-14T10:35:52;0.90;;;0.50;;
17207;SDS011;8720;48.488;9.202;2023-03-14T10:38:23;1.20;;;0.70;;
17207;SDS011;8720;48.488;9.202;2023-03-14T10:40:55;0.90;;;0.60;;
17207;SDS011;8720;48.488;9.202;2023-03-14T10:43:25;1.10;;;0.67;;
17207;SDS011;8720;48.488;9.202;2023-03-14T10:45:57;1.20;;;0.60;;
17207;SDS011;8720;48.488;9.202;2023-03-14T10:48:32;1.10;;;0.70;;
17207;SDS011;8720;48.488;9.202;2023-03-14T10:51:03;0.90;;;0.60;;
17207;SDS011;8720;48.488;9.202;2023-03-14T10:53:39;1.40;;;0.70;;
17207;SDS011;8720;48.488;9.202;2023-03-14T10:56:12;2.30;;;0.70;;
17207;SDS011;8720;48.488;9.202;2023-03-14T10:58:42;1.00;;;0.60;;
17207;SDS011;8720;48.488;9.202;2023-03-14T11:01:17;0.90;;;0.57;;
17207;SDS011;8720;48.488;9.202;2023-03-14T11:04:06;0.90;;;0.60;;
17207;SDS011;8720;48.488;9.202;2023-03-14T11:06:48;1.63;;;0.60;;
17207;SDS011;8720;48.488;9.202;2023-03-14T11:09:28;1.10;;;0.60;;
17207;SDS011;8720;48.488;9.202;2023-03-14T11:12:10;1.00;;;0.70;;
17207;SDS011;8720;48.488;9.202;2023-03-14T11:15:02;1.07;;;0.70;;
17207;SDS011;8720;48.488;9.202;2023-03-14T11:17:41;0.93;;;0.60;;
17207;SDS011;8720;48.488;9.202;2023-03-14T11:20:31;2.03;;;0.70;;
17207;SDS011;8720;48.488;9.202;2023-03-14T11:23:08;1.00;;;0.60;;
17207;SDS011;8720;48.488;9.202;2023-03-14T11:25:45;1.10;;;0.60;;
17207;SDS011;8720;48.488;9.202;2023-03-14T11:28:23;1.20;;;0.70;;
17207;SDS011;8720;48.488;9.202;2023-03-14T11:30:59;1.20;;;0.70;;
17207;SDS011;8720;48.488;9.202;2023-03-14T11:33:44;0.90;;;0.70;;
17207;SDS011;8720;48.488;9.202;2023-03-14T11:36:21;1.63;;;0.60;;
17207;SDS011;8720;48.488;9.202;2023-03-14T11:38:56;1.00;;;0.70;;
17207;SDS011;8720;48.488;9.202;2023-03-14T11:41:27;1.00;;;0.60;;
17207;SDS011;8720;48.488;9.202;2023-03-14T11:44:02;0.90;;;0.60;;
17207;SDS011;8720;48.488;9.202;2023-03-14T11:46:41;0.90;;;0.60;;
17207;SDS011;8720;48.488;9.202;2023-03-14T11:49:19;1.30;;;0.63;;
17207;SDS011;8720;48.488;9.202;2023-03-14T11:52:03;1.00;;;0.60;;
17207;SDS011;8720;48.488;9.202;2023-03-14T11:54:39;1.10;;;0.70;;
17207;SDS011;8720;48.488;9.202;2023-03-14T11:57:17;0.90;;;0.60;;
17207;SDS011;8720;48.488;9.202;2023-03-14T11:59:48;1.10;;;0.70;;
17207;SDS011;8720;48.488;9.202;2023-03-14T12:02:22;1.30;;;0.60;;
17207;SDS011;8720;48.488;9.202;2023-03-14T12:11:15;0.90;;;0.60;;
17207;SDS011;8720;48.488;9.202;2023-03-14T12:13:51;0.90;;;0.50;;
17207;SDS011;8720;48.488;9.202;2023-03-14T12:16:33;0.97;;;0.63;;
17207;SDS011;8720;48.488;9.202;2023-03-14T12:22:05;1.00;;;0.60;;
17207;SDS011;8720;48.488;9.202;2023-03-14T12:24:50;1.63;;;0.90;;
17207;SDS011;8720;48.488;9.202;2023-03-14T12:30:31;1.00;;;0.60;;
17207;SDS011;8720;48.488;9.202;2023-03-14T12:33:12;1.10;;;0.70;;
17207;SDS011;8720;48.488;9.202;2023-03-14T12:35:58;0.93;;;0.63;;
17207;SDS011;8720;48.488;9.202;2023-03-14T12:39:00;1.07;;;0.67;;
17207;SDS011;8720;48.488;9.202;2023-03-14T12:41:53;1.20;;;0.70;;
17207;SDS011;8720;48.488;9.202;2023-03-14T12:44:44;1.80;;;0.70;;
17207;SDS011;8720;48.488;9.202;2023-03-14T12:50:22;1.20;;;0.67;;
17207;SDS011;8720;48.488;9.202;2023-03-14T12:53:10;1.63;;;0.80;;
17207;SDS011;8720;48.488;9.202;2023-03-14T12:56:17;1.50;;;0.73;;
17207;SDS011;8720;48.488;9.202;2023-03-14T13:02:20;2.43;;;0.80;;
17207;SDS011;8720;48.488;9.202;2023-03-14T13:04:52;1.33;;;0.87;;
17207;SDS011;8720;48.488;9.202;2023-03-14T13:10:38;1.20;;;0.90;;
17207;SDS011;8720;48.488;9.202;2023-03-14T13:13:15;1.00;;;0.70;;
17207;SDS011;8720;48.488;9.202;2023-03-14T13:15:48;1.13;;;0.80;;
17207;SDS011;8720;48.488;9.202;2023-03-14T13:18:24;1.07;;;0.80;;
17207;SDS011;8720;48.488;9.202;2023-03-14T13:20:59;1.30;;;0.80;;
17207;SDS011;8720;48.488;9.202;2023-03-14T13:23:33;4.40;;;1.27;;
17207;SDS011;8720;48.488;9.202;2023-03-14T13:26:05;1.20;;;0.80;;
17207;SDS011;8720;48.488;9.202;2023-03-14T13:28:40;1.60;;;0.90;;
17207;SDS011;8720;48.488;9.202;2023-03-14T13:31:17;1.77;;;0.80;;
17207;SDS011;8720;48.488;9.202;2023-03-14T13:33:56;1.30;;;0.97;;
17207;SDS011;8720;48.488;9.202;2023-03-14T13:36:26;1.87;;;0.90;;
17207;SDS011;8720;48.488;9.202;2023-03-14T13:38:57;1.50;;;1.20;;
17207;SDS011;8720;48.488;9.202;2023-03-14T13:41:27;4.63;;;1.50;;
17207;SDS011;8720;48.488;9.202;2023-03-14T13:43:57;1.37;;;1.13;;
17207;SDS011;8720;48.488;9.202;2023-03-14T13:46:34;1.40;;;0.90;;
17207;SDS011;8720;48.488;9.202;2023-03-14T13:49:04;2.63;;;1.30;;
17207;SDS011;8720;48.488;9.202;2023-03-14T13:51:36;2.27;;;1.10;;
17207;SDS011;8720;48.488;9.202;2023-03-14T13:54:12;1.53;;;0.90;;
17207;SDS011;8720;48.488;9.202;2023-03-14T13:56:41;1.33;;;0.90;;
17207;SDS011;8720;48.488;9.202;2023-03-14T13:59:20;1.30;;;1.00;;
17207;SDS011;8720;48.488;9.202;2023-03-14T14:01:50;1.20;;;0.80;;
17207;SDS011;8720;48.488;9.202;2023-03-14T14:04:19;1.10;;;0.90;;
17207;SDS011;8720;48.488;9.202;2023-03-14T14:06:52;5.03;;;1.17;;
17207;SDS011;8720;48.488;9.202;2023-03-14T14:09:23;2.43;;;1.10;;
17207;SDS011;8720;48.488;9.202;2023-03-14T14:11:54;1.90;;;1.20;;
17207;SDS011;8720;48.488;9.202;2023-03-14T14:14:26;1.73;;;0.90;;
17207;SDS011;8720;48.488;9.202;2023-03-14T14:17:01;2.00;;;1.00;;
17207;SDS011;8720;48.488;9.202;2023-03-14T14:19:34;2.57;;;1.10;;
17207;SDS011;8720;48.488;9.202;2023-03-14T14:22:04;2.07;;;1.20;;
17207;SDS011;8720;48.488;9.202;2023-03-14T14:24:32;2.30;;;1.00;;
17207;SDS011;8720;48.488;9.202;2023-03-14T14:27:07;1.73;;;0.90;;
17207;SDS011;8720;48.488;9.202;2023-03-14T14:29:40;1.10;;;0.90;;
17207;SDS011;8720;48.488;9.202;2023-03-14T14:32:11;2.20;;;0.93;;
17207;SDS011;8720;48.488;9.202;2023-03-14T14:34:42;2.23;;;1.03;;
17207;SDS011;8720;48.488;9.202;2023-03-14T14:37:24;2.23;;;0.97;;
17207;SDS011;8720;48.488;9.202;2023-03-14T14:39:54;1.40;;;1.00;;
17207;SDS011;8720;48.488;9.202;2023-03-14T14:42:25;1.30;;;0.97;;
17207;SDS011;8720;48.488;9.202;2023-03-14T14:44:56;1.70;;;1.00;;
17207;SDS011;8720;48.488;9.202;2023-03-14T14:47:27;3.17;;;1.07;;
17207;SDS011;8720;48.488;9.202;2023-03-14T14:49:59;1.70;;;1.20;;
17207;SDS011;8720;48.488;9.202;2023-03-14T14:52:33;1.80;;;1.20;;
17207;SDS011;8720;48.488;9.202;2023-03-14T14:55:13;2.70;;;1.20;;
17207;SDS011;8720;48.488;9.202;2023-03-14T14:57:49;1.97;;;1.13;;
17207;SDS011;8720;48.488;9.202;2023-03-14T15:00:19;2.03;;;1.10;;
17207;SDS011;8720;48.488;9.202;2023-03-14T15:02:51;1.47;;;1.00;;
17207;SDS011;8720;48.488;9.202;2023-03-14T15:05:22;2.00;;;1.03;;
17207;SDS011;8720;48.488;9.202;2023-03-14T15:07:52;2.23;;;1.10;;
17207;SDS011;8720;48.488;9.202;2023-03-14T15:10:20;1.50;;;1.10;;
17207;SDS011;8720;48.488;9.202;2023-03-14T15:12:50;3.93;;;1.10;;
17207;SDS011;8720;48.488;9.202;2023-03-14T15:15:18;1.97;;;1.10;;
17207;SDS011;8720;48.488;9.202;2023-03-14T15:17:46;4.13;;;1.40;;
17207;SDS011;8720;48.488;9.202;2023-03-14T15:20:15;2.20;;;1.00;;
17207;SDS011;8720;48.488;9.202;2023-03-14T15:22:44;1.60;;;1.10;;
17207;SDS011;8720;48.488;9.202;2023-03-14T15:25:12;2.37;;;1.10;;
17207;SDS011;8720;48.488;9.202;2023-03-14T15:27:40;2.60;;;1.40;;
17207;SDS011;8720;48.488;9.202;2023-03-14T15:30:09;1.60;;;1.30;;
17207;SDS011;8720;48.488;9.202;2023-03-14T15:32:38;2.30;;;1.00;;
17207;SDS011;8720;48.488;9.202;2023-03-14T15:35:06;2.00;;;1.03;;
17207;SDS011;8720;48.488;9.202;2023-03-14T15:37:36;2.13;;;1.30;;
17207;SDS011;8720;48.488;9.202;2023-03-14T15:40:04;2.30;;;1.13;;
17207;SDS011;8720;48.488;9.202;2023-03-14T15:42:38;1.67;;;1.10;;
17207;SDS011;8720;48.488;9.202;2023-03-14T15:45:06;2.20;;;0.90;;
17207;SDS011;8720;48.488;9.202;2023-03-14T15:47:35;1.67;;;1.10;;
17207;SDS011;8720;48.488;9.202;2023-03-14T15:50:03;2.03;;;1.20;;
17207;SDS011;8720;48.488;9.202;2023-03-14T15:52:35;3.40;;;1.50;;
17207;SDS011;8720;48.488;9.202;2023-03-14T15:55:04;8.30;;;1.27;;
17207;SDS011;8720;48.488;9.202;2023-03-14T15:57:32;3.50;;;0.90;;
17207;SDS011;8720;48.488;9.202;2023-03-14T15:59:59;1.83;;;0.90;;